Time;durP1;ratioP1;P1;durP2;ratioP2;P2;SDS_P1;SDS_P2;PMS_P1;PMS_P2;Temp;Humidity;BMP_temperature;BMP_pressure;BME280_temperature;BME280_humidity;BME280_pressure;Samples;Min_cycle;Max_cycle;Signal;HPM_P1;HPM_P2
2023/12/11 00:01:39;;;;;;;0.40;0.40;;;10.80;99.90;;;;;;7400237;19;20146;-83
2023/12/11 00:04:05;;;;;;;0.20;0.20;;;10.60;99.90;;;;;;7399415;19;20612;-83
2023/12/11 00:06:31;;;;;;;0.30;0.30;;;10.50;99.90;;;;;;7398002;19;20153;-82
2023/12/11 00:08:57;;;;;;;0.40;0.40;;;10.70;99.90;;;;;;7399331;19;20143;-82
2023/12/11 00:11:25;;;;;;;0.30;0.30;;;10.70;99.90;;;;;;7399181;19;20160;-83
2023/12/11 00:13:51;;;;;;;0.30;0.30;;;10.80;99.90;;;;;;7396317;19;20142;-83
2023/12/11 00:16:17;;;;;;;0.37;0.37;;;10.90;99.90;;;;;;7398751;19;20636;-82
2023/12/11 00:18:43;;;;;;;0.50;0.50;;;10.70;99.90;;;;;;7398758;19;20157;-82
2023/12/11 00:21:09;;;;;;;0.30;0.30;;;10.70;99.90;;;;;;7399348;19;20509;-82
2023/12/11 00:23:35;;;;;;;0.30;0.30;;;10.70;99.90;;;;;;7400772;19;20166;-83
2023/12/11 00:26:01;;;;;;;0.57;0.40;;;10.60;99.90;;;;;;7398169;19;20257;-82
2023/12/11 00:28:27;;;;;;;0.20;0.20;;;10.50;99.90;;;;;;7399217;19;20153;-83
2023/12/11 00:30:53;;;;;;;0.20;0.20;;;10.70;99.90;;;;;;7399262;19;20531;-81
2023/12/11 00:33:19;;;;;;;0.40;0.40;;;11.00;99.90;;;;;;7399465;19;20163;-83
2023/12/11 00:35:46;;;;;;;0.20;0.20;;;11.00;99.90;;;;;;7399644;19;20158;-83
2023/12/11 00:38:12;;;;;;;0.30;0.30;;;10.90;99.90;;;;;;7397618;19;20200;-82
2023/12/11 00:40:38;;;;;;;0.30;0.30;;;10.90;99.90;;;;;;7400348;19;20664;-82
2023/12/11 00:43:04;;;;;;;0.30;0.30;;;11.00;99.90;;;;;;7398574;19;20162;-83
2023/12/11 00:45:29;;;;;;;0.20;0.20;;;10.90;99.90;;;;;;7396312;19;20537;-83
2023/12/11 00:47:55;;;;;;;0.10;0.10;;;10.90;99.90;;;;;;7399259;19;20139;-82
2023/12/11 00:50:21;;;;;;;0.30;0.30;;;10.90;99.90;;;;;;7398555;19;20146;-82
2023/12/11 00:52:48;;;;;;;0.30;0.30;;;11.00;99.90;;;;;;7398603;19;20130;-83
2023/12/11 00:55:14;;;;;;;0.80;0.60;;;10.90;99.90;;;;;;7397873;19;20135;-84
2023/12/11 00:57:40;;;;;;;2.33;0.40;;;10.90;99.90;;;;;;7397664;19;20545;-83
2023/12/11 01:00:06;;;;;;;0.20;0.20;;;11.00;99.90;;;;;;7399398;19;20131;-83
2023/12/11 01:02:32;;;;;;;0.23;0.23;;;11.00;99.90;;;;;;7399321;19;20169;-82
2023/12/11 01:04:57;;;;;;;0.20;0.20;;;11.00;99.90;;;;;;7397864;19;20151;-82
2023/12/11 01:07:23;;;;;;;0.40;0.40;;;11.00;99.90;;;;;;7396248;19;20159;-82
2023/12/11 01:09:49;;;;;;;0.27;0.27;;;11.00;99.90;;;;;;7399422;19;20229;-83
2023/12/11 01:12:15;;;;;;;0.13;0.13;;;11.00;99.90;;;;;;7398487;19;20167;-83
2023/12/11 01:14:41;;;;;;;0.30;0.30;;;11.00;99.90;;;;;;7399822;19;20146;-81
2023/12/11 01:17:07;;;;;;;0.37;0.37;;;11.00;99.90;;;;;;7399207;19;20134;-82
2023/12/11 01:19:32;;;;;;;0.30;0.30;;;11.00;99.90;;;;;;7399283;19;20246;-83
2023/12/11 01:21:58;;;;;;;0.30;0.30;;;11.00;99.90;;;;;;7398279;19;20588;-82
2023/12/11 01:24:24;;;;;;;0.30;0.30;;;11.00;99.90;;;;;;7398830;19;20141;-83
2023/12/11 01:26:50;;;;;;;0.53;0.40;;;11.00;99.90;;;;;;7394491;19;20653;-83
2023/12/11 01:29:16;;;;;;;0.30;0.30;;;11.00;99.90;;;;;;7401596;19;20142;-82
2023/12/11 01:31:41;;;;;;;0.20;0.20;;;11.10;99.90;;;;;;7402130;19;20142;-82
2023/12/11 01:34:07;;;;;;;0.27;0.27;;;11.00;99.90;;;;;;7400756;19;21613;-82
2023/12/11 01:36:33;;;;;;;0.40;0.40;;;11.00;99.90;;;;;;7401394;19;20150;-83
2023/12/11 01:39:02;;;;;;;0.30;0.30;;;11.00;99.90;;;;;;7397706;19;20154;-82
2023/12/11 01:41:28;;;;;;;0.20;0.20;;;11.00;99.90;;;;;;7394980;19;20151;-82
2023/12/11 01:43:55;;;;;;;0.30;0.30;;;11.00;99.90;;;;;;7396058;19;20506;-82
2023/12/11 01:46:24;;;;;;;0.20;0.20;;;11.00;99.90;;;;;;7395271;19;20199;-83
2023/12/11 01:48:52;;;;;;;0.30;0.30;;;11.00;99.90;;;;;;7395700;19;20202;-82
2023/12/11 01:51:19;;;;;;;0.37;0.37;;;10.90;99.90;;;;;;7396685;19;20481;-83
2023/12/11 01:53:48;;;;;;;0.20;0.20;;;11.00;99.90;;;;;;7395071;19;20150;-83
2023/12/11 01:56:14;;;;;;;0.20;0.20;;;11.00;99.90;;;;;;7396449;19;20162;-84
2023/12/11 01:58:40;;;;;;;0.30;0.30;;;11.00;99.90;;;;;;7395945;19;20135;-84
2023/12/11 02:01:09;;;;;;;0.73;0.60;;;11.00;99.90;;;;;;7395764;19;20246;-84
2023/12/11 02:03:36;;;;;;;0.50;0.30;;;11.20;99.90;;;;;;7395997;19;20150;-82
2023/12/11 02:06:05;;;;;;;0.20;0.20;;;11.30;99.90;;;;;;7392285;19;20217;-83
2023/12/11 02:08:31;;;;;;;0.10;0.10;;;11.40;99.90;;;;;;7394511;19;20151;-83
2023/12/11 02:11:00;;;;;;;0.50;0.40;;;11.30;99.90;;;;;;7394572;19;20545;-82
2023/12/11 02:13:26;;;;;;;0.20;0.20;;;11.10;99.90;;;;;;7393455;19;20153;-82
2023/12/11 02:15:52;;;;;;;0.30;0.30;;;11.10;99.90;;;;;;7394005;19;20137;-82
2023/12/11 02:18:19;;;;;;;0.37;0.37;;;11.00;99.90;;;;;;7393872;19;20142;-82
2023/12/11 02:20:45;;;;;;;0.30;0.30;;;11.00;99.90;;;;;;7395995;19;20149;-82
2023/12/11 02:23:15;;;;;;;0.40;0.30;;;11.00;99.90;;;;;;7395295;19;20175;-82
2023/12/11 02:25:43;;;;;;;0.50;0.30;;;11.10;99.90;;;;;;7394864;19;20147;-81
2023/12/11 02:28:09;;;;;;;0.20;0.20;;;11.20;99.90;;;;;;7394579;19;20571;-83
2023/12/11 02:30:37;;;;;;;0.40;0.40;;;11.40;99.90;;;;;;7394294;19;20150;-83
2023/12/11 02:33:04;;;;;;;0.20;0.20;;;11.40;99.90;;;;;;7394410;19;20588;-82
2023/12/11 02:35:29;;;;;;;0.20;0.20;;;11.40;99.90;;;;;;7394039;19;20147;-82
2023/12/11 02:37:55;;;;;;;0.20;0.20;;;11.40;99.90;;;;;;7393624;19;20118;-82
2023/12/11 02:40:21;;;;;;;0.30;0.30;;;11.40;99.90;;;;;;7393938;19;20123;-83
2023/12/11 02:42:47;;;;;;;0.23;0.23;;;11.40;99.90;;;;;;7393269;19;20513;-83
2023/12/11 02:45:14;;;;;;;0.20;0.20;;;11.30;99.90;;;;;;7393398;19;20624;-81
2023/12/11 02:47:43;;;;;;;0.30;0.30;;;11.30;99.90;;;;;;7390803;19;20174;-84
2023/12/11 02:50:09;;;;;;;0.20;0.20;;;11.30;99.90;;;;;;7392959;19;20154;-83
2023/12/11 02:52:35;;;;;;;0.47;0.30;;;11.10;99.90;;;;;;7393223;19;20139;-82
2023/12/11 02:55:01;;;;;;;0.30;0.27;;;11.10;99.90;;;;;;7393758;19;20473;-82
2023/12/11 02:57:26;;;;;;;0.37;0.23;;;11.30;99.90;;;;;;7393831;19;20485;-83
2023/12/11 02:59:52;;;;;;;0.40;0.40;;;11.40;99.90;;;;;;7393211;19;20162;-84
2023/12/11 03:02:18;;;;;;;0.40;0.30;;;11.40;99.90;;;;;;7394004;19;20624;-83
2023/12/11 03:04:44;;;;;;;0.50;0.50;;;11.40;99.90;;;;;;7392493;19;20229;-83
2023/12/11 03:07:09;;;;;;;0.20;0.20;;;11.40;99.90;;;;;;7391920;19;20130;-83
2023/12/11 03:09:35;;;;;;;0.20;0.20;;;11.30;99.90;;;;;;7394351;19;20202;-83
2023/12/11 03:12:01;;;;;;;0.30;0.30;;;11.40;99.90;;;;;;7393001;19;20629;-83
2023/12/11 03:14:27;;;;;;;0.17;0.17;;;11.30;99.90;;;;;;7394896;19;20130;-84
2023/12/11 03:16:52;;;;;;;0.30;0.30;;;11.30;99.90;;;;;;7392787;19;20157;-84
2023/12/11 03:19:18;;;;;;;0.67;0.20;;;11.10;99.90;;;;;;7394015;19;20150;-84
2023/12/11 03:21:44;;;;;;;0.20;0.20;;;11.00;99.90;;;;;;7393070;19;20123;-84
2023/12/11 03:24:10;;;;;;;0.20;0.20;;;11.10;99.90;;;;;;7392396;19;20126;-83
2023/12/11 03:26:36;;;;;;;0.27;0.27;;;11.00;99.90;;;;;;7393208;19;20157;-84
2023/12/11 03:29:01;;;;;;;0.10;0.10;;;11.00;99.90;;;;;;7392818;19;20541;-84
2023/12/11 03:31:27;;;;;;;0.43;0.43;;;11.10;99.90;;;;;;7393800;19;20127;-84
2023/12/11 03:33:53;;;;;;;0.30;0.30;;;10.90;99.90;;;;;;7392652;19;20206;-82
2023/12/11 03:36:19;;;;;;;0.23;0.20;;;10.90;99.90;;;;;;7394090;19;20174;-84
2023/12/11 03:38:44;;;;;;;0.50;0.30;;;10.90;99.90;;;;;;7393028;19;20147;-83
2023/12/11 03:41:10;;;;;;;0.30;0.30;;;10.80;99.90;;;;;;7391502;19;20127;-82
2023/12/11 03:43:36;;;;;;;0.20;0.20;;;10.60;99.90;;;;;;7393773;19;20555;-84
2023/12/11 03:46:03;;;;;;;0.43;0.40;;;10.50;99.90;;;;;;7391008;19;20190;-84
2023/12/11 03:48:29;;;;;;;0.27;0.27;;;10.50;99.90;;;;;;7392091;19;20134;-84
2023/12/11 03:50:56;;;;;;;0.27;0.27;;;10.70;99.90;;;;;;7400165;19;20168;-84
2023/12/11 03:53:22;;;;;;;0.20;0.20;;;10.80;99.90;;;;;;7399833;19;20177;-85
2023/12/11 03:55:48;;;;;;;0.30;0.30;;;10.80;99.90;;;;;;7399449;19;20150;-84
2023/12/11 03:58:13;;;;;;;0.20;0.20;;;10.50;99.90;;;;;;7399020;19;20150;-84
2023/12/11 04:00:39;;;;;;;0.17;0.17;;;10.50;99.90;;;;;;7399962;19;20139;-85
2023/12/11 04:03:05;;;;;;;0.23;0.23;;;10.40;99.90;;;;;;7400840;19;20142;-85
2023/12/11 04:05:30;;;;;;;0.27;0.27;;;10.60;99.90;;;;;;7400246;19;20154;-85
2023/12/11 04:07:56;;;;;;;0.23;0.23;;;10.80;99.90;;;;;;7398955;19;20514;-84
2023/12/11 04:10:22;;;;;;;0.20;0.20;;;11.00;99.90;;;;;;7399771;19;20171;-83
2023/12/11 04:12:48;;;;;;;0.23;0.23;;;11.10;99.90;;;;;;7399331;19;20143;-83
2023/12/11 04:15:14;;;;;;;0.13;0.13;;;11.10;99.90;;;;;;7398942;19;20639;-85
2023/12/11 04:17:42;;;;;;;0.87;0.30;;;11.20;99.90;;;;;;7399137;19;20206;-85
2023/12/11 04:20:09;;;;;;;0.20;0.20;;;11.10;99.90;;;;;;7399719;19;20459;-84
2023/12/11 04:22:34;;;;;;;0.20;0.20;;;11.00;99.90;;;;;;7399536;19;20609;-84
2023/12/11 04:25:00;;;;;;;0.20;0.20;;;11.10;99.90;;;;;;7399117;19;20202;-86
2023/12/11 04:27:26;;;;;;;0.63;0.30;;;11.10;99.90;;;;;;7396831;19;20155;-85
2023/12/11 04:29:52;;;;;;;0.20;0.20;;;11.10;99.90;;;;;;7398981;19;20478;-84
2023/12/11 04:32:17;;;;;;;0.30;0.30;;;10.90;99.90;;;;;;7398430;19;20176;-84
2023/12/11 04:34:43;;;;;;;0.20;0.20;;;10.90;99.90;;;;;;7399430;19;20147;-85
2023/12/11 04:37:09;;;;;;;0.30;0.30;;;10.80;99.90;;;;;;7397787;19;20154;-84
2023/12/11 04:39:35;;;;;;;0.20;0.20;;;11.00;99.90;;;;;;7399156;19;20134;-84
2023/12/11 04:42:00;;;;;;;0.13;0.13;;;11.00;99.90;;;;;;7399513;19;20238;-85
2023/12/11 04:44:26;;;;;;;0.30;0.30;;;11.00;99.90;;;;;;7398964;19;20157;-85
2023/12/11 04:46:52;;;;;;;0.20;0.20;;;10.90;99.90;;;;;;7395284;19;20174;-84
2023/12/11 04:49:18;;;;;;;0.20;0.20;;;10.80;99.90;;;;;;7397974;19;20595;-83
2023/12/11 04:51:43;;;;;;;0.50;0.20;;;10.80;99.90;;;;;;7397790;19;20173;-85
2023/12/11 04:54:09;;;;;;;0.20;0.20;;;10.70;99.90;;;;;;7398167;19;20130;-84
2023/12/11 04:56:35;;;;;;;0.17;0.17;;;10.70;99.90;;;;;;7399465;19;20147;-86
2023/12/11 04:59:01;;;;;;;0.37;0.37;;;10.60;99.90;;;;;;7396708;19;20210;-85
2023/12/11 05:01:27;;;;;;;0.20;0.20;;;10.70;99.90;;;;;;7396806;19;20616;-86
2023/12/11 05:03:53;;;;;;;1.20;0.53;;;10.80;99.90;;;;;;7397148;19;20133;-85
2023/12/11 05:06:19;;;;;;;0.20;0.20;;;10.90;99.90;;;;;;7397427;19;20151;-84
2023/12/11 05:08:45;;;;;;;0.30;0.30;;;10.90;99.90;;;;;;7398824;19;20916;-84
2023/12/11 05:11:11;;;;;;;0.40;0.40;;;10.80;99.90;;;;;;7397614;19;20143;-85
2023/12/11 05:13:37;;;;;;;0.37;0.37;;;10.90;99.90;;;;;;7397253;19;20146;-84
2023/12/11 05:16:03;;;;;;;0.43;0.43;;;10.90;99.90;;;;;;7396322;19;20155;-85
2023/12/11 05:18:29;;;;;;;0.53;0.47;;;10.90;99.90;;;;;;7397308;19;20217;-85
2023/12/11 05:20:55;;;;;;;0.20;0.20;;;11.00;99.90;;;;;;7397528;19;20154;-83
2023/12/11 05:23:21;;;;;;;0.20;0.20;;;11.10;99.90;;;;;;7396881;19;20194;-84
2023/12/11 05:25:47;;;;;;;0.20;0.20;;;11.10;99.90;;;;;;7396389;19;20147;-83
2023/12/11 05:28:13;;;;;;;0.30;0.30;;;11.10;99.90;;;;;;7397249;19;20134;-84
2023/12/11 05:30:39;;;;;;;0.30;0.30;;;11.00;99.90;;;;;;7396642;19;20494;-84
2023/12/11 05:33:04;;;;;;;0.30;0.30;;;11.00;99.90;;;;;;7396493;19;20150;-83
2023/12/11 05:35:30;;;;;;;0.20;0.20;;;11.00;99.90;;;;;;7396180;19;21222;-85
2023/12/11 05:38:00;;;;;;;0.43;0.40;;;11.00;99.90;;;;;;7395474;19;20492;-84
2023/12/11 05:40:25;;;;;;;0.30;0.30;;;11.00;99.90;;;;;;7398051;19;20134;-84
2023/12/11 05:42:51;;;;;;;0.60;0.50;;;11.00;99.90;;;;;;7398610;19;20153;-84
2023/12/11 05:45:17;;;;;;;0.30;0.30;;;11.00;99.90;;;;;;7395546;19;20799;-83
2023/12/11 05:47:43;;;;;;;0.33;0.30;;;11.00;99.90;;;;;;7395573;19;20232;-83
2023/12/11 05:50:09;;;;;;;0.37;0.37;;;10.90;99.90;;;;;;7395670;19;20158;-84
2023/12/11 05:52:35;;;;;;;0.20;0.20;;;10.80;99.90;;;;;;7397409;19;20131;-84
2023/12/11 05:55:01;;;;;;;0.20;0.20;;;10.90;99.90;;;;;;7396455;19;20167;-84
2023/12/11 05:57:27;;;;;;;0.30;0.30;;;11.00;99.90;;;;;;7395787;19;20490;-83
2023/12/11 05:59:52;;;;;;;0.30;0.30;;;10.90;99.90;;;;;;7396517;19;20134;-83
2023/12/11 06:02:18;;;;;;;0.33;0.30;;;10.90;99.90;;;;;;7398068;19;20639;-83
2023/12/11 06:04:44;;;;;;;0.20;0.20;;;10.80;99.90;;;;;;7394814;19;20618;-83
2023/12/11 06:07:10;;;;;;;0.20;0.20;;;10.80;99.90;;;;;;7394943;19;20146;-84
2023/12/11 06:09:36;;;;;;;0.30;0.30;;;10.80;99.90;;;;;;7395931;19;20142;-84
2023/12/11 06:12:01;;;;;;;0.57;0.57;;;10.80;99.90;;;;;;7393237;19;20143;-83
2023/12/11 06:14:27;;;;;;;0.27;0.27;;;10.60;99.90;;;;;;7394300;19;20159;-81
2023/12/11 06:16:53;;;;;;;0.23;0.23;;;10.50;99.90;;;;;;7397800;19;20138;-83
2023/12/11 06:19:18;;;;;;;0.20;0.20;;;10.60;99.90;;;;;;7394557;19;20141;-84
2023/12/11 06:21:46;;;;;;;0.30;0.30;;;10.70;99.90;;;;;;7395660;19;20141;-84
2023/12/11 06:24:12;;;;;;;0.47;0.30;;;10.70;99.90;;;;;;7393314;19;20131;-82
2023/12/11 06:26:42;;;;;;;0.50;0.40;;;10.80;99.90;;;;;;7393815;19;20555;-83
2023/12/11 06:29:08;;;;;;;0.30;0.30;;;10.70;99.90;;;;;;7394212;19;20138;-83
2023/12/11 06:31:34;;;;;;;0.30;0.30;;;10.80;99.90;;;;;;7393264;19;20134;-79
2023/12/11 06:34:00;;;;;;;0.30;0.30;;;10.90;99.90;;;;;;7392774;19;20615;-80
2023/12/11 06:36:28;;;;;;;0.30;0.30;;;10.90;99.90;;;;;;7389843;19;20172;-77
2023/12/11 06:38:54;;;;;;;0.20;0.20;;;10.80;99.90;;;;;;7390343;19;20156;-81
2023/12/11 06:41:20;;;;;;;0.20;0.20;;;10.80;99.90;;;;;;7391479;19;20173;-80
2023/12/11 06:43:53;;;;;;;0.50;0.50;;;10.90;99.90;;;;;;7392658;19;20611;-80
2023/12/11 06:46:19;;;;;;;1.37;0.60;;;10.80;99.90;;;;;;7395507;19;20256;-79
2023/12/11 06:48:45;;;;;;;0.50;0.50;;;10.70;99.90;;;;;;7392563;19;20138;-79
2023/12/11 06:51:13;;;;;;;1.70;0.70;;;10.80;99.90;;;;;;7389687;19;20579;-79
2023/12/11 06:53:39;;;;;;;0.47;0.37;;;10.80;99.90;;;;;;7393196;19;20134;-79
2023/12/11 06:56:06;;;;;;;0.30;0.30;;;10.90;99.90;;;;;;7396302;19;20142;-80
2023/12/11 06:58:31;;;;;;;0.30;0.30;;;10.90;99.90;;;;;;7390492;19;20177;-80
2023/12/11 07:00:58;;;;;;;0.97;0.67;;;11.00;99.90;;;;;;7389630;19;20667;-79
2023/12/11 07:03:24;;;;;;;0.97;0.40;;;11.00;99.90;;;;;;7391477;19;20131;-79
2023/12/11 07:05:50;;;;;;;0.37;0.37;;;10.90;99.90;;;;;;7387799;19;20572;-78
2023/12/11 07:08:16;;;;;;;0.47;0.40;;;10.90;99.90;;;;;;7392451;19;20130;-79
2023/12/11 07:10:41;;;;;;;0.53;0.40;;;10.70;99.90;;;;;;7392997;19;20432;-77
2023/12/11 07:13:07;;;;;;;0.43;0.40;;;10.60;99.90;;;;;;7393155;19;20194;-78
2023/12/11 07:15:33;;;;;;;0.27;0.27;;;10.50;99.90;;;;;;7388604;19;20139;-78
2023/12/11 07:17:59;;;;;;;0.30;0.30;;;10.60;99.90;;;;;;7387218;19;20155;-78
2023/12/11 07:20:25;;;;;;;0.30;0.30;;;10.80;99.90;;;;;;7387876;19;20187;-78
2023/12/11 07:22:50;;;;;;;0.20;0.20;;;10.90;99.90;;;;;;7389212;19;20135;-78
2023/12/11 07:25:16;;;;;;;0.57;0.57;;;10.90;99.90;;;;;;7396725;19;20177;-78
2023/12/11 07:27:43;;;;;;;0.40;0.30;;;10.90;99.90;;;;;;7391260;19;20175;-79
2023/12/11 07:30:14;;;;;;;0.57;0.50;;;10.90;99.90;;;;;;7393659;19;20605;-79
2023/12/11 07:32:41;;;;;;;0.50;0.50;;;11.00;99.90;;;;;;7396901;19;20135;-77
2023/12/11 07:35:10;;;;;;;0.80;0.50;;;11.00;99.90;;;;;;7397243;19;20583;-78
2023/12/11 07:37:38;;;;;;;0.77;0.73;;;10.90;99.90;;;;;;7399642;19;20193;-78
2023/12/11 07:40:05;;;;;;;0.30;0.30;;;10.90;99.90;;;;;;7399271;19;20131;-77
2023/12/11 07:42:31;;;;;;;0.40;0.33;;;10.90;99.90;;;;;;7380496;19;20135;-79
2023/12/11 07:44:57;;;;;;;0.60;0.60;;;11.00;99.90;;;;;;7387828;19;20570;-78
2023/12/11 07:47:23;;;;;;;0.40;0.40;;;11.00;99.90;;;;;;7384392;19;20127;-76
2023/12/11 07:49:48;;;;;;;0.40;0.40;;;10.80;99.90;;;;;;7395548;19;20143;-77
2023/12/11 07:52:15;;;;;;;0.60;0.60;;;10.80;99.90;;;;;;7397107;19;20155;-77
2023/12/11 07:54:41;;;;;;;0.30;0.30;;;10.80;99.90;;;;;;7395970;19;20150;-78
2023/12/11 07:57:06;;;;;;;0.30;0.30;;;10.80;99.90;;;;;;7396079;19;20831;-78
2023/12/11 07:59:32;;;;;;;0.37;0.37;;;10.90;99.90;;;;;;7395536;19;20535;-78
2023/12/11 08:01:58;;;;;;;0.30;0.30;;;10.80;99.90;;;;;;7396983;19;20135;-78
2023/12/11 08:04:24;;;;;;;0.33;0.33;;;10.80;99.90;;;;;;7394735;19;20239;-78
2023/12/11 08:06:50;;;;;;;2.07;1.50;;;10.80;99.90;;;;;;7395770;19;20138;-78
2023/12/11 08:09:16;;;;;;;1.13;0.70;;;10.80;99.90;;;;;;7394846;19;20146;-77
2023/12/11 08:11:42;;;;;;;0.53;0.53;;;10.80;99.90;;;;;;7398108;19;20230;-79
2023/12/11 08:14:08;;;;;;;1.20;0.70;;;10.80;99.90;;;;;;7395289;19;20579;-77
2023/12/11 08:16:34;;;;;;;0.90;0.43;;;10.80;99.90;;;;;;7395716;19;20226;-77
2023/12/11 08:19:00;;;;;;;1.03;0.70;;;10.90;99.90;;;;;;7394264;19;20138;-77
2023/12/11 08:21:27;;;;;;;0.50;0.50;;;11.00;99.90;;;;;;7393034;19;20130;-77
2023/12/11 08:23:53;;;;;;;0.40;0.40;;;11.20;99.90;;;;;;7395264;19;20127;-76
2023/12/11 08:26:19;;;;;;;0.50;0.50;;;11.20;99.90;;;;;;7394648;19;20142;-77
2023/12/11 08:28:46;;;;;;;0.97;0.70;;;11.10;99.90;;;;;;7393796;19;20164;-75
2023/12/11 08:31:12;;;;;;;1.10;0.90;;;11.20;99.90;;;;;;7393890;19;20134;-77
2023/12/11 08:33:38;;;;;;;2.60;1.63;;;11.20;99.90;;;;;;7396621;19;20639;-76
2023/12/11 08:36:05;;;;;;;1.02;0.60;;;11.20;99.90;;;;;;7393263;19;20480;-76
2023/12/11 08:38:32;;;;;;;0.33;0.33;;;11.20;99.90;;;;;;7395185;19;20135;-76
2023/12/11 08:40:58;;;;;;;1.02;0.65;;;11.20;99.90;;;;;;7394535;19;20612;-77
2023/12/11 08:43:24;;;;;;;1.57;0.50;;;11.20;99.90;;;;;;7397940;19;20138;-75
2023/12/11 08:45:50;;;;;;;0.67;0.50;;;11.30;99.90;;;;;;7396120;19;20606;-77
2023/12/11 08:48:16;;;;;;;0.57;0.40;;;11.40;99.90;;;;;;7393764;19;20147;-76
2023/12/11 08:50:41;;;;;;;0.50;0.50;;;11.60;99.90;;;;;;7393495;19;20153;-76
2023/12/11 08:53:08;;;;;;;1.33;0.80;;;11.50;99.90;;;;;;7388237;19;20138;-76
2023/12/11 08:55:34;;;;;;;1.93;0.50;;;11.50;99.90;;;;;;7393926;19;20139;-76
2023/12/11 08:58:00;;;;;;;0.57;0.40;;;11.40;99.90;;;;;;7394576;19;20194;-76
2023/12/11 09:00:28;;;;;;;0.40;0.40;;;11.40;99.90;;;;;;7393416;19;20166;-75
2023/12/11 09:02:54;;;;;;;0.30;0.30;;;11.50;99.90;;;;;;7393823;19;20210;-75
2023/12/11 09:05:20;;;;;;;2.20;0.77;;;11.40;99.90;;;;;;7390370;19;20146;-75
2023/12/11 09:07:45;;;;;;;0.40;0.40;;;11.40;99.90;;;;;;7391295;19;20173;-76
2023/12/11 09:10:11;;;;;;;0.77;0.30;;;11.40;99.90;;;;;;7394041;19;20135;-75
2023/12/11 09:12:38;;;;;;;0.27;0.27;;;11.60;99.90;;;;;;7395809;19;20150;-75
2023/12/11 09:15:05;;;;;;;0.43;0.43;;;11.60;99.90;;;;;;7392260;19;20146;-76
2023/12/11 09:17:31;;;;;;;0.73;0.33;;;11.70;99.90;;;;;;7392858;19;20170;-74
2023/12/11 09:19:57;;;;;;;0.40;0.40;;;11.70;99.90;;;;;;7392856;19;20139;-76
2023/12/11 09:22:26;;;;;;;0.60;0.50;;;11.70;99.90;;;;;;7393391;19;20134;-77
2023/12/11 09:24:51;;;;;;;0.37;0.37;;;11.80;99.90;;;;;;7396167;19;20166;-75
2023/12/11 09:27:21;;;;;;;0.40;0.40;;;11.70;99.90;;;;;;7390884;19;20150;-76
2023/12/11 09:29:48;;;;;;;0.37;0.37;;;11.70;99.90;;;;;;7391468;19;20196;-75
2023/12/11 09:32:15;;;;;;;0.32;0.30;;;11.70;99.90;;;;;;7395507;19;20139;-75
2023/12/11 09:34:41;;;;;;;0.73;0.73;;;11.70;99.90;;;;;;7393978;19;20564;-76
2023/12/11 09:37:07;;;;;;;0.87;0.40;;;11.70;99.90;;;;;;7389735;19;20138;-76
2023/12/11 09:39:33;;;;;;;1.95;0.50;;;11.70;99.90;;;;;;7392931;19;20154;-77
2023/12/11 09:42:00;;;;;;;1.45;0.52;;;11.70;99.90;;;;;;7392825;19;20151;-76
2023/12/11 09:44:40;;;;;;;0.33;0.33;;;11.90;99.90;;;;;;7393994;19;20480;-76
2023/12/11 09:47:13;;;;;;;0.88;0.70;;;11.90;99.90;;;;;;7393490;19;20131;-77
2023/12/11 09:49:39;;;;;;;1.47;1.37;;;11.90;99.90;;;;;;7391798;19;20154;-75
2023/12/11 09:52:05;;;;;;;0.60;0.40;;;11.90;99.90;;;;;;7393098;19;20178;-75
2023/12/11 09:54:30;;;;;;;0.60;0.47;;;12.00;99.90;;;;;;7392263;19;20135;-75
2023/12/11 09:56:58;;;;;;;0.70;0.70;;;12.00;99.90;;;;;;7394766;19;20134;-76
2023/12/11 09:59:27;;;;;;;0.27;0.27;;;12.10;99.90;;;;;;7391907;19;20142;-75
2023/12/11 10:01:54;;;;;;;1.17;0.40;;;12.00;99.90;;;;;;7392784;19;20139;-75
2023/12/11 10:04:19;;;;;;;0.82;0.47;;;12.00;99.90;;;;;;7391208;19;20526;-76
2023/12/11 10:06:45;;;;;;;0.22;0.22;;;12.10;99.90;;;;;;7390659;19;20126;-76
2023/12/11 10:09:33;;;;;;;0.40;0.30;;;12.00;99.90;;;;;;7394101;19;20135;-75
2023/12/11 10:12:00;;;;;;;0.20;0.20;;;12.10;99.90;;;;;;7394903;19;20596;-76
2023/12/11 10:14:28;;;;;;;0.30;0.30;;;12.10;99.90;;;;;;7395055;19;20127;-76
2023/12/11 10:16:54;;;;;;;0.45;0.40;;;12.20;99.90;;;;;;7394474;19;20151;-75
2023/12/11 10:19:31;;;;;;;0.30;0.30;;;12.30;99.90;;;;;;7393878;19;20130;-75
2023/12/11 10:21:57;;;;;;;0.43;0.38;;;12.40;99.90;;;;;;7393885;19;20230;-77
2023/12/11 10:24:23;;;;;;;0.27;0.27;;;12.50;99.90;;;;;;7393708;19;20606;-76
2023/12/11 10:26:57;;;;;;;0.45;0.40;;;12.60;99.90;;;;;;7393193;19;20138;-76
2023/12/11 10:29:30;;;;;;;0.47;0.47;;;12.80;99.90;;;;;;7394949;19;20438;-76
2023/12/11 10:32:06;;;;;;;0.52;0.52;;;12.90;99.90;;;;;;7394090;19;20135;-76
2023/12/11 10:34:43;;;;;;;2.05;0.55;;;12.90;99.90;;;;;;7395345;19;20146;-76
2023/12/11 10:37:17;;;;;;;1.58;0.35;;;13.20;99.90;;;;;;7393682;19;20210;-75
2023/12/11 10:39:55;;;;;;;0.60;0.52;;;13.40;99.90;;;;;;7394362;19;20152;-76
2023/12/11 10:42:22;;;;;;;1.75;1.02;;;13.30;99.90;;;;;;7397275;19;20202;-75
2023/12/11 10:44:49;;;;;;;0.88;0.70;;;13.20;99.90;;;;;;7391396;19;20162;-75
2023/12/11 10:47:15;;;;;;;0.30;0.30;;;13.10;99.90;;;;;;7391329;19;20209;-75
2023/12/11 10:49:42;;;;;;;0.30;0.30;;;13.10;99.90;;;;;;7390277;19;20155;-75
2023/12/11 10:52:08;;;;;;;1.67;0.30;;;13.10;99.90;;;;;;7392798;19;20167;-76
2023/12/11 10:54:37;;;;;;;0.63;0.63;;;13.00;99.90;;;;;;7393277;19;20134;-76
2023/12/11 10:57:07;;;;;;;1.85;0.95;;;12.90;99.90;;;;;;7390811;19;20150;-76
2023/12/11 10:59:34;;;;;;;0.50;0.45;;;12.90;99.90;;;;;;7390219;19;20210;-76
2023/12/11 11:02:01;;;;;;;0.35;0.35;;;12.80;99.90;;;;;;7390765;19;20168;-76
2023/12/11 11:04:32;;;;;;;3.45;2.33;;;12.70;99.90;;;;;;7389720;19;20210;-75
2023/12/11 11:07:20;;;;;;;5.75;4.20;;;12.80;99.90;;;;;;7390235;19;20549;-75
2023/12/11 11:10:16;;;;;;;4.20;2.95;;;12.90;99.90;;;;;;7392739;19;20148;-75
2023/12/11 11:13:10;;;;;;;0.63;0.63;;;12.80;99.90;;;;;;7391695;19;20139;-76
2023/12/11 11:15:36;;;;;;;0.85;0.60;;;12.80;99.90;;;;;;7390103;19;20746;-75
2023/12/11 11:18:06;;;;;;;1.73;0.80;;;12.80;99.90;;;;;;7389867;19;20123;-76
2023/12/11 11:20:37;;;;;;;5.75;3.53;;;12.90;99.90;;;;;;7389913;19;20145;-75
2023/12/11 11:23:15;;;;;;;4.45;2.97;;;12.90;99.90;;;;;;7389665;19;20147;-76
2023/12/11 11:25:42;;;;;;;1.10;1.00;;;12.90;99.90;;;;;;7391706;19;20131;-75
2023/12/11 11:28:40;;;;;;;0.70;0.52;;;13.00;99.90;;;;;;7388116;19;20155;-75
2023/12/11 11:31:10;;;;;;;1.92;0.57;;;12.90;99.90;;;;;;7391831;19;20158;-75
2023/12/11 11:33:47;;;;;;;0.50;0.50;;;13.00;99.90;;;;;;7389852;19;20139;-77
2023/12/11 11:36:17;;;;;;;2.75;0.90;;;13.20;99.90;;;;;;7391502;19;20138;-75
2023/12/11 11:38:54;;;;;;;0.60;0.60;;;13.20;99.90;;;;;;7388112;19;20584;-76
2023/12/11 11:41:25;;;;;;;0.32;0.32;;;13.20;99.90;;;;;;7391221;19;20169;-76
2023/12/11 11:43:59;;;;;;;2.67;1.10;;;13.30;99.90;;;;;;7395093;19;20135;-75
2023/12/11 11:46:26;;;;;;;1.48;0.88;;;13.30;99.90;;;;;;7386849;19;20154;-74
2023/12/11 11:48:52;;;;;;;1.38;0.70;;;13.40;99.90;;;;;;7391577;19;20131;-75
2023/12/11 11:51:20;;;;;;;0.50;0.50;;;13.40;99.90;;;;;;7388446;19;20495;-74
2023/12/11 11:53:53;;;;;;;1.63;1.30;;;13.30;99.90;;;;;;7388585;19;20150;-74
2023/12/11 11:56:19;;;;;;;2.13;1.57;;;13.40;99.90;;;;;;7389926;19;20479;-75
2023/12/11 11:58:45;;;;;;;1.55;1.10;;;13.20;99.90;;;;;;7387432;19;20122;-74
2023/12/11 12:01:11;;;;;;;0.70;0.40;;;13.10;99.90;;;;;;7389756;19;20131;-75
2023/12/11 12:03:42;;;;;;;1.10;0.57;;;13.20;99.90;;;;;;7389881;19;20150;-75
2023/12/11 12:06:08;;;;;;;0.98;0.50;;;13.10;99.90;;;;;;7387720;19;20611;-74
2023/12/11 12:08:36;;;;;;;1.65;0.50;;;13.10;99.90;;;;;;7393872;19;20139;-75
2023/12/11 12:11:05;;;;;;;0.40;0.40;;;13.00;99.90;;;;;;7394728;19;20670;-74
2023/12/11 12:13:36;;;;;;;0.30;0.30;;;12.90;99.90;;;;;;7400045;19;20154;-74
2023/12/11 12:16:02;;;;;;;0.40;0.30;;;12.90;99.90;;;;;;7395934;19;20135;-74
2023/12/11 12:18:28;;;;;;;2.70;0.45;;;12.90;99.90;;;;;;7395350;19;20701;-75
2023/12/11 12:21:21;;;;;;;1.05;0.40;;;12.90;99.90;;;;;;7395872;19;20134;-75
2023/12/11 12:24:03;;;;;;;0.43;0.43;;;12.90;99.90;;;;;;7394169;19;20162;-73
2023/12/11 12:26:31;;;;;;;1.20;0.20;;;13.20;99.90;;;;;;7394725;19;20155;-74
2023/12/11 12:28:57;;;;;;;1.13;1.00;;;13.30;99.90;;;;;;7394334;19;20135;-74
2023/12/11 12:31:23;;;;;;;0.57;0.43;;;13.30;99.90;;;;;;7395074;19;20167;-74
2023/12/11 12:33:49;;;;;;;3.10;0.30;;;13.70;99.90;;;;;;7394685;19;20587;-76
2023/12/11 12:36:15;;;;;;;1.53;0.77;;;13.70;99.90;;;;;;7395869;19;20142;-76
2023/12/11 12:38:42;;;;;;;0.70;0.30;;;13.80;99.90;;;;;;7393736;19;20612;-75
2023/12/11 12:41:14;;;;;;;0.30;0.30;;;13.80;99.90;;;;;;7394978;19;20226;-76
2023/12/11 12:43:40;;;;;;;0.60;0.60;;;14.00;99.90;;;;;;7401142;19;20584;-75
2023/12/11 12:46:06;;;;;;;1.05;0.63;;;14.20;99.90;;;;;;7393345;19;20622;-75
2023/12/11 12:48:32;;;;;;;0.38;0.35;;;14.10;99.90;;;;;;7394162;19;20146;-76